sensor_id;sensor_type;location;lat;lon;timestamp;temperature;humidity
23147;DHT22;11742;53.532;-1.478;2023-03-01T00:01:37;10.70;87.50
23147;DHT22;11742;53.532;-1.478;2023-03-01T00:04:21;10.70;87.50
23147;DHT22;11742;53.532;-1.478;2023-03-01T00:07:05;10.60;87.40
23147;DHT22;11742;53.532;-1.478;2023-03-01T00:09:49;10.60;87.40
23147;DHT22;11742;53.532;-1.478;2023-03-01T00:12:33;10.60;87.40
23147;DHT22;11742;53.532;-1.478;2023-03-01T00:15:18;10.60;87.50
23147;DHT22;11742;53.532;-1.478;2023-03-01T00:18:02;10.60;87.60
23147;DHT22;11742;53.532;-1.478;2023-03-01T00:20:50;10.60;87.50
23147;DHT22;11742;53.532;-1.478;2023-03-01T00:23:35;10.60;87.50
23147;DHT22;11742;53.532;-1.478;2023-03-01T00:26:19;10.60;87.60
23147;DHT22;11742;53.532;-1.478;2023-03-01T00:29:04;10.60;87.70
23147;DHT22;11742;53.532;-1.478;2023-03-01T00:31:48;10.50;87.60
23147;DHT22;11742;53.532;-1.478;2023-03-01T00:34:33;10.60;87.70
23147;DHT22;11742;53.532;-1.478;2023-03-01T00:37:17;10.50;87.60
23147;DHT22;11742;53.532;-1.478;2023-03-01T00:40:01;10.60;87.70
23147;DHT22;11742;53.532;-1.478;2023-03-01T00:42:50;10.60;87.80
23147;DHT22;11742;53.532;-1.478;2023-03-01T00:45:34;10.50;87.70
23147;DHT22;11742;53.532;-1.478;2023-03-01T00:48:18;10.50;87.60
23147;DHT22;11742;53.532;-1.478;2023-03-01T00:51:10;10.50;87.70
23147;DHT22;11742;53.532;-1.478;2023-03-01T00:53:55;10.50;87.80
23147;DHT22;11742;53.532;-1.478;2023-03-01T00:56:40;10.50;87.70
23147;DHT22;11742;53.532;-1.478;2023-03-01T00:59:24;10.50;87.80
23147;DHT22;11742;53.532;-1.478;2023-03-01T01:02:09;10.50;87.70
23147;DHT22;11742;53.532;-1.478;2023-03-01T01:04:53;10.50;87.80
23147;DHT22;11742;53.532;-1.478;2023-03-01T01:07:37;10.50;87.80
23147;DHT22;11742;53.532;-1.478;2023-03-01T01:10:21;10.50;87.80
23147;DHT22;11742;53.532;-1.478;2023-03-01T01:13:06;10.50;87.70
23147;DHT22;11742;53.532;-1.478;2023-03-01T01:15:50;10.50;87.60
23147;DHT22;11742;53.532;-1.478;2023-03-01T01:18:34;10.50;87.60
23147;DHT22;11742;53.532;-1.478;2023-03-01T01:21:19;10.50;87.60
23147;DHT22;11742;53.532;-1.478;2023-03-01T01:24:04;10.50;87.60
23147;DHT22;11742;53.532;-1.478;2023-03-01T01:26:48;10.40;87.50
23147;DHT22;11742;53.532;-1.478;2023-03-01T01:29:32;10.40;87.50
23147;DHT22;11742;53.532;-1.478;2023-03-01T01:32:17;10.40;87.40
23147;DHT22;11742;53.532;-1.478;2023-03-01T01:35:01;10.40;87.30
23147;DHT22;11742;53.532;-1.478;2023-03-01T01:37:45;10.40;87.30
23147;DHT22;11742;53.532;-1.478;2023-03-01T01:40:30;10.40;87.40
23147;DHT22;11742;53.532;-1.478;2023-03-01T01:43:16;10.40;87.30
23147;DHT22;11742;53.532;-1.478;2023-03-01T01:46:04;10.40;87.30
23147;DHT22;11742;53.532;-1.478;2023-03-01T01:48:52;10.30;87.30
23147;DHT22;11742;53.532;-1.478;2023-03-01T01:51:37;10.40;87.50
23147;DHT22;11742;53.532;-1.478;2023-03-01T01:54:23;10.30;87.50
23147;DHT22;11742;53.532;-1.478;2023-03-01T01:57:20;10.30;87.50
23147;DHT22;11742;53.532;-1.478;2023-03-01T02:00:07;10.30;87.50
23147;DHT22;11742;53.532;-1.478;2023-03-01T02:02:56;10.30;87.50
23147;DHT22;11742;53.532;-1.478;2023-03-01T02:08:28;10.30;87.60
23147;DHT22;11742;53.532;-1.478;2023-03-01T02:11:14;10.30;87.70
23147;DHT22;11742;53.532;-1.478;2023-03-01T02:13:58;10.30;87.70
23147;DHT22;11742;53.532;-1.478;2023-03-01T02:16:43;10.30;87.70
23147;DHT22;11742;53.532;-1.478;2023-03-01T02:19:45;10.30;87.70
23147;DHT22;11742;53.532;-1.478;2023-03-01T02:22:32;10.30;87.80
23147;DHT22;11742;53.532;-1.478;2023-03-01T02:25:23;10.30;87.80
23147;DHT22;11742;53.532;-1.478;2023-03-01T02:30:51;10.30;87.70
23147;DHT22;11742;53.532;-1.478;2023-03-01T02:33:55;10.20;87.80
23147;DHT22;11742;53.532;-1.478;2023-03-01T02:36:42;10.30;87.90
23147;DHT22;11742;53.532;-1.478;2023-03-01T02:39:29;10.20;87.70
23147;DHT22;11742;53.532;-1.478;2023-03-01T02:42:15;10.20;87.80
23147;DHT22;11742;53.532;-1.478;2023-03-01T02:45:00;10.20;87.80
23147;DHT22;11742;53.532;-1.478;2023-03-01T02:47:44;10.20;87.90
23147;DHT22;11742;53.532;-1.478;2023-03-01T02:56:04;10.20;87.90
23147;DHT22;11742;53.532;-1.478;2023-03-01T02:58:48;10.20;87.80
23147;DHT22;11742;53.532;-1.478;2023-03-01T03:01:35;10.20;87.90
23147;DHT22;11742;53.532;-1.478;2023-03-01T03:04:22;10.20;88.00
23147;DHT22;11742;53.532;-1.478;2023-03-01T03:07:07;10.20;88.00
23147;DHT22;11742;53.532;-1.478;2023-03-01T03:09:51;10.20;88.00
23147;DHT22;11742;53.532;-1.478;2023-03-01T03:12:35;10.20;88.00
23147;DHT22;11742;53.532;-1.478;2023-03-01T03:15:19;10.20;88.00
23147;DHT22;11742;53.532;-1.478;2023-03-01T03:18:05;10.20;88.00
23147;DHT22;11742;53.532;-1.478;2023-03-01T03:20:49;10.20;88.00
23147;DHT22;11742;53.532;-1.478;2023-03-01T03:23:36;10.20;88.00
23147;DHT22;11742;53.532;-1.478;2023-03-01T03:26:21;10.20;88.10
23147;DHT22;11742;53.532;-1.478;2023-03-01T03:29:05;10.20;88.00
23147;DHT22;11742;53.532;-1.478;2023-03-01T03:31:49;10.20;88.10
23147;DHT22;11742;53.532;-1.478;2023-03-01T03:34:33;10.20;88.10
23147;DHT22;11742;53.532;-1.478;2023-03-01T03:37:18;10.10;88.10
23147;DHT22;11742;53.532;-1.478;2023-03-01T03:40:21;10.10;88.20
23147;DHT22;11742;53.532;-1.478;2023-03-01T03:43:07;10.20;88.20
23147;DHT22;11742;53.532;-1.478;2023-03-01T03:45:51;10.10;88.10
23147;DHT22;11742;53.532;-1.478;2023-03-01T03:48:37;10.10;88.10
23147;DHT22;11742;53.532;-1.478;2023-03-01T03:51:21;10.10;88.20
23147;DHT22;11742;53.532;-1.478;2023-03-01T03:54:06;10.10;88.20
23147;DHT22;11742;53.532;-1.478;2023-03-01T03:56:50;10.10;88.00
23147;DHT22;11742;53.532;-1.478;2023-03-01T03:59:35;10.10;88.20
23147;DHT22;11742;53.532;-1.478;2023-03-01T04:02:19;10.10;88.20
23147;DHT22;11742;53.532;-1.478;2023-03-01T04:05:06;10.10;88.30
23147;DHT22;11742;53.532;-1.478;2023-03-01T04:07:51;10.10;88.30
23147;DHT22;11742;53.532;-1.478;2023-03-01T04:10:45;10.10;88.40
23147;DHT22;11742;53.532;-1.478;2023-03-01T04:13:29;10.10;88.30
23147;DHT22;11742;53.532;-1.478;2023-03-01T04:16:13;10.10;88.40
23147;DHT22;11742;53.532;-1.478;2023-03-01T04:18:57;10.10;88.30
23147;DHT22;11742;53.532;-1.478;2023-03-01T04:21:43;10.10;88.30
23147;DHT22;11742;53.532;-1.478;2023-03-01T04:24:27;10.10;88.40
23147;DHT22;11742;53.532;-1.478;2023-03-01T04:27:11;10.10;88.40
23147;DHT22;11742;53.532;-1.478;2023-03-01T04:29:56;10.10;88.40
23147;DHT22;11742;53.532;-1.478;2023-03-01T04:32:40;10.10;88.30
23147;DHT22;11742;53.532;-1.478;2023-03-01T04:35:24;10.10;88.40
23147;DHT22;11742;53.532;-1.478;2023-03-01T04:38:08;10.00;88.30
23147;DHT22;11742;53.532;-1.478;2023-03-01T04:40:53;10.00;88.30
23147;DHT22;11742;53.532;-1.478;2023-03-01T04:43:37;10.00;88.40
23147;DHT22;11742;53.532;-1.478;2023-03-01T04:46:21;10.00;88.30
23147;DHT22;11742;53.532;-1.478;2023-03-01T04:49:05;10.00;88.50
23147;DHT22;11742;53.532;-1.478;2023-03-01T04:51:49;10.00;88.50
23147;DHT22;11742;53.532;-1.478;2023-03-01T04:54:34;10.00;88.50
23147;DHT22;11742;53.532;-1.478;2023-03-01T04:57:18;10.00;88.90
23147;DHT22;11742;53.532;-1.478;2023-03-01T05:00:03;10.00;88.60
23147;DHT22;11742;53.532;-1.478;2023-03-01T05:03:03;10.00;88.70
23147;DHT22;11742;53.532;-1.478;2023-03-01T05:05:49;10.00;88.70
23147;DHT22;11742;53.532;-1.478;2023-03-01T05:08:33;10.00;88.70
23147;DHT22;11742;53.532;-1.478;2023-03-01T05:11:20;10.00;88.70
23147;DHT22;11742;53.532;-1.478;2023-03-01T05:14:06;10.00;88.70
23147;DHT22;11742;53.532;-1.478;2023-03-01T05:16:50;10.00;89.50
23147;DHT22;11742;53.532;-1.478;2023-03-01T05:19:35;10.00;88.70
23147;DHT22;11742;53.532;-1.478;2023-03-01T05:22:19;10.00;88.60
23147;DHT22;11742;53.532;-1.478;2023-03-01T05:25:04;9.90;88.70
23147;DHT22;11742;53.532;-1.478;2023-03-01T05:27:48;10.00;88.70
23147;DHT22;11742;53.532;-1.478;2023-03-01T05:30:33;9.90;88.60
23147;DHT22;11742;53.532;-1.478;2023-03-01T05:33:17;9.90;88.60
23147;DHT22;11742;53.532;-1.478;2023-03-01T05:36:02;9.90;88.70
23147;DHT22;11742;53.532;-1.478;2023-03-01T05:38:46;9.90;88.60
23147;DHT22;11742;53.532;-1.478;2023-03-01T05:41:31;9.90;88.60
23147;DHT22;11742;53.532;-1.478;2023-03-01T05:44:15;9.90;88.60
23147;DHT22;11742;53.532;-1.478;2023-03-01T05:47:00;9.90;88.50
23147;DHT22;11742;53.532;-1.478;2023-03-01T05:49:44;9.90;88.50
23147;DHT22;11742;53.532;-1.478;2023-03-01T05:52:29;9.90;88.50
23147;DHT22;11742;53.532;-1.478;2023-03-01T05:55:13;9.90;88.60
23147;DHT22;11742;53.532;-1.478;2023-03-01T05:57:58;9.90;88.50
23147;DHT22;11742;53.532;-1.478;2023-03-01T06:00:44;9.90;88.40
23147;DHT22;11742;53.532;-1.478;2023-03-01T06:03:29;9.90;88.40
23147;DHT22;11742;53.532;-1.478;2023-03-01T06:06:13;9.90;88.60
23147;DHT22;11742;53.532;-1.478;2023-03-01T06:08:57;9.90;88.50
23147;DHT22;11742;53.532;-1.478;2023-03-01T06:11:41;9.90;88.50
23147;DHT22;11742;53.532;-1.478;2023-03-01T06:14:26;9.80;88.60
23147;DHT22;11742;53.532;-1.478;2023-03-01T06:17:10;9.80;88.60
23147;DHT22;11742;53.532;-1.478;2023-03-01T06:19:54;9.80;88.60
23147;DHT22;11742;53.532;-1.478;2023-03-01T06:22:39;9.80;88.60
23147;DHT22;11742;53.532;-1.478;2023-03-01T06:25:24;9.80;88.70
23147;DHT22;11742;53.532;-1.478;2023-03-01T06:28:09;9.80;88.60
23147;DHT22;11742;53.532;-1.478;2023-03-01T06:30:53;9.80;88.60
23147;DHT22;11742;53.532;-1.478;2023-03-01T06:33:37;9.80;88.60
23147;DHT22;11742;53.532;-1.478;2023-03-01T06:36:22;9.80;88.60
23147;DHT22;11742;53.532;-1.478;2023-03-01T06:39:06;9.80;88.70
23147;DHT22;11742;53.532;-1.478;2023-03-01T06:41:50;9.80;88.70
23147;DHT22;11742;53.532;-1.478;2023-03-01T06:44:35;9.80;88.80
23147;DHT22;11742;53.532;-1.478;2023-03-01T06:47:19;9.80;88.80
23147;DHT22;11742;53.532;-1.478;2023-03-01T06:50:03;9.80;88.80
23147;DHT22;11742;53.532;-1.478;2023-03-01T06:52:47;9.80;88.80
23147;DHT22;11742;53.532;-1.478;2023-03-01T06:55:31;9.80;88.90
23147;DHT22;11742;53.532;-1.478;2023-03-01T06:58:15;9.80;88.90
23147;DHT22;11742;53.532;-1.478;2023-03-01T07:01:00;9.80;88.90
23147;DHT22;11742;53.532;-1.478;2023-03-01T07:03:44;9.80;88.90
23147;DHT22;11742;53.532;-1.478;2023-03-01T07:06:28;9.80;88.90
23147;DHT22;11742;53.532;-1.478;2023-03-01T07:09:12;9.80;89.00
23147;DHT22;11742;53.532;-1.478;2023-03-01T07:11:57;9.80;89.00
23147;DHT22;11742;53.532;-1.478;2023-03-01T07:14:44;9.70;89.00
23147;DHT22;11742;53.532;-1.478;2023-03-01T07:17:28;9.70;88.80
23147;DHT22;11742;53.532;-1.478;2023-03-01T07:20:12;9.70;88.90
23147;DHT22;11742;53.532;-1.478;2023-03-01T07:22:57;9.70;89.00
23147;DHT22;11742;53.532;-1.478;2023-03-01T07:25:42;9.70;89.00
23147;DHT22;11742;53.532;-1.478;2023-03-01T07:28:26;9.70;89.00
23147;DHT22;11742;53.532;-1.478;2023-03-01T07:31:11;9.70;89.10
23147;DHT22;11742;53.532;-1.478;2023-03-01T07:33:55;9.70;89.10
23147;DHT22;11742;53.532;-1.478;2023-03-01T07:36:39;9.70;89.10
23147;DHT22;11742;53.532;-1.478;2023-03-01T07:39:26;9.70;89.10
23147;DHT22;11742;53.532;-1.478;2023-03-01T07:42:11;9.70;89.20
23147;DHT22;11742;53.532;-1.478;2023-03-01T07:44:55;9.70;89.20
23147;DHT22;11742;53.532;-1.478;2023-03-01T07:47:39;9.70;89.30
23147;DHT22;11742;53.532;-1.478;2023-03-01T07:50:23;9.70;89.30
23147;DHT22;11742;53.532;-1.478;2023-03-01T07:53:08;9.70;89.50
23147;DHT22;11742;53.532;-1.478;2023-03-01T07:56:06;9.70;89.50
23147;DHT22;11742;53.532;-1.478;2023-03-01T07:58:50;9.70;89.60
23147;DHT22;11742;53.532;-1.478;2023-03-01T08:01:35;9.70;89.60
23147;DHT22;11742;53.532;-1.478;2023-03-01T08:04:19;9.70;89.70
23147;DHT22;11742;53.532;-1.478;2023-03-01T08:07:04;9.70;89.70
23147;DHT22;11742;53.532;-1.478;2023-03-01T08:09:49;9.70;89.80
23147;DHT22;11742;53.532;-1.478;2023-03-01T08:12:33;9.70;89.80
23147;DHT22;11742;53.532;-1.478;2023-03-01T08:15:18;9.70;89.80
23147;DHT22;11742;53.532;-1.478;2023-03-01T08:18:02;9.70;89.90
23147;DHT22;11742;53.532;-1.478;2023-03-01T08:20:47;9.70;89.90
23147;DHT22;11742;53.532;-1.478;2023-03-01T08:23:31;9.70;89.90
23147;DHT22;11742;53.532;-1.478;2023-03-01T08:26:19;9.80;90.60
23147;DHT22;11742;53.532;-1.478;2023-03-01T08:29:04;9.70;90.90
23147;DHT22;11742;53.532;-1.478;2023-03-01T08:31:49;9.70;90.50
23147;DHT22;11742;53.532;-1.478;2023-03-01T08:34:33;9.70;90.20
23147;DHT22;11742;53.532;-1.478;2023-03-01T08:37:19;9.70;90.20
23147;DHT22;11742;53.532;-1.478;2023-03-01T08:40:03;9.80;90.30
23147;DHT22;11742;53.532;-1.478;2023-03-01T08:42:50;9.80;90.20
23147;DHT22;11742;53.532;-1.478;2023-03-01T08:45:35;9.80;90.10
23147;DHT22;11742;53.532;-1.478;2023-03-01T08:48:19;9.80;89.90
23147;DHT22;11742;53.532;-1.478;2023-03-01T08:51:16;9.90;89.90
23147;DHT22;11742;53.532;-1.478;2023-03-01T08:54:01;9.90;89.70
23147;DHT22;11742;53.532;-1.478;2023-03-01T08:56:45;9.90;89.70
23147;DHT22;11742;53.532;-1.478;2023-03-01T08:59:29;9.90;89.60
23147;DHT22;11742;53.532;-1.478;2023-03-01T09:02:14;10.00;89.50
23147;DHT22;11742;53.532;-1.478;2023-03-01T09:04:59;10.00;89.50
23147;DHT22;11742;53.532;-1.478;2023-03-01T09:07:43;10.00;89.50
23147;DHT22;11742;53.532;-1.478;2023-03-01T09:10:27;10.00;89.40
23147;DHT22;11742;53.532;-1.478;2023-03-01T09:13:11;10.00;89.40
23147;DHT22;11742;53.532;-1.478;2023-03-01T09:15:56;10.10;89.50
23147;DHT22;11742;53.532;-1.478;2023-03-01T09:18:41;10.10;89.40
23147;DHT22;11742;53.532;-1.478;2023-03-01T09:21:25;10.10;89.60
23147;DHT22;11742;53.532;-1.478;2023-03-01T09:24:13;10.10;89.20
23147;DHT22;11742;53.532;-1.478;2023-03-01T09:26:58;10.10;89.20
23147;DHT22;11742;53.532;-1.478;2023-03-01T09:29:42;10.20;89.10
23147;DHT22;11742;53.532;-1.478;2023-03-01T09:32:26;10.10;89.10
23147;DHT22;11742;53.532;-1.478;2023-03-01T09:35:11;10.20;89.30
23147;DHT22;11742;53.532;-1.478;2023-03-01T09:37:55;10.20;89.20
23147;DHT22;11742;53.532;-1.478;2023-03-01T09:40:43;10.20;89.10
23147;DHT22;11742;53.532;-1.478;2023-03-01T09:43:32;10.20;89.00
23147;DHT22;11742;53.532;-1.478;2023-03-01T09:46:21;10.20;89.20
23147;DHT22;11742;53.532;-1.478;2023-03-01T09:49:10;10.20;89.30
23147;DHT22;11742;53.532;-1.478;2023-03-01T09:52:00;10.30;89.10
23147;DHT22;11742;53.532;-1.478;2023-03-01T09:54:47;10.30;88.70
23147;DHT22;11742;53.532;-1.478;2023-03-01T09:57:41;10.40;88.70
23147;DHT22;11742;53.532;-1.478;2023-03-01T10:06:14;10.50;88.80
23147;DHT22;11742;53.532;-1.478;2023-03-01T10:09:07;10.50;88.90
23147;DHT22;11742;53.532;-1.478;2023-03-01T10:11:54;10.60;89.10
23147;DHT22;11742;53.532;-1.478;2023-03-01T10:15:28;10.60;88.90
23147;DHT22;11742;53.532;-1.478;2023-03-01T10:17:52;10.70;88.90
23147;DHT22;11742;53.532;-1.478;2023-03-01T10:20:58;10.70;89.00
23147;DHT22;11742;53.532;-1.478;2023-03-01T10:23:43;10.70;89.00
23147;DHT22;11742;53.532;-1.478;2023-03-01T10:29:17;10.80;89.30
23147;DHT22;11742;53.532;-1.478;2023-03-01T10:32:05;10.80;89.40
23147;DHT22;11742;53.532;-1.478;2023-03-01T10:34:52;10.90;89.20
23147;DHT22;11742;53.532;-1.478;2023-03-01T10:37:37;10.90;89.10
23147;DHT22;11742;53.532;-1.478;2023-03-01T10:40:30;11.00;89.00
23147;DHT22;11742;53.532;-1.478;2023-03-01T10:43:15;11.00;89.10
23147;DHT22;11742;53.532;-1.478;2023-03-01T10:45:59;11.10;89.20
23147;DHT22;11742;53.532;-1.478;2023-03-01T10:48:43;11.10;89.20
23147;DHT22;11742;53.532;-1.478;2023-03-01T10:51:27;11.10;89.40
23147;DHT22;11742;53.532;-1.478;2023-03-01T10:54:31;11.20;89.50
23147;DHT22;11742;53.532;-1.478;2023-03-01T10:57:29;11.30;89.60
23147;DHT22;11742;53.532;-1.478;2023-03-01T11:00:26;11.30;89.60
23147;DHT22;11742;53.532;-1.478;2023-03-01T11:03:11;11.40;89.70
23147;DHT22;11742;53.532;-1.478;2023-03-01T11:05:58;11.40;89.70
23147;DHT22;11742;53.532;-1.478;2023-03-01T11:08:43;11.40;89.90
23147;DHT22;11742;53.532;-1.478;2023-03-01T11:11:32;11.40;89.90
23147;DHT22;11742;53.532;-1.478;2023-03-01T11:14:17;11.50;90.00
23147;DHT22;11742;53.532;-1.478;2023-03-01T11:17:12;11.50;90.00
23147;DHT22;11742;53.532;-1.478;2023-03-01T11:20:00;11.50;89.90
23147;DHT22;11742;53.532;-1.478;2023-03-01T11:22:55;11.50;89.90
23147;DHT22;11742;53.532;-1.478;2023-03-01T11:25:44;11.60;90.00
23147;DHT22;11742;53.532;-1.478;2023-03-01T11:28:29;11.60;90.00
23147;DHT22;11742;53.532;-1.478;2023-03-01T11:31:14;11.60;90.00
23147;DHT22;11742;53.532;-1.478;2023-03-01T11:34:11;11.60;90.00
23147;DHT22;11742;53.532;-1.478;2023-03-01T11:37:01;11.70;90.00
23147;DHT22;11742;53.532;-1.478;2023-03-01T11:39:49;11.70;90.00
23147;DHT22;11742;53.532;-1.478;2023-03-01T11:49:12;11.80;90.10
23147;DHT22;11742;53.532;-1.478;2023-03-01T12:09:22;12.00;89.60
23147;DHT22;11742;53.532;-1.478;2023-03-01T12:12:17;12.10;89.70
23147;DHT22;11742;53.532;-1.478;2023-03-01T12:24:00;12.30;89.90
23147;DHT22;11742;53.532;-1.478;2023-03-01T12:26:54;12.30;89.70
23147;DHT22;11742;53.532;-1.478;2023-03-01T12:29:47;12.40;89.70
23147;DHT22;11742;53.532;-1.478;2023-03-01T12:38:24;12.50;89.70
23147;DHT22;11742;53.532;-1.478;2023-03-01T12:50:41;12.60;89.60
23147;DHT22;11742;53.532;-1.478;2023-03-01T12:53:28;12.70;89.70
23147;DHT22;11742;53.532;-1.478;2023-03-01T12:56:34;12.70;89.70
23147;DHT22;11742;53.532;-1.478;2023-03-01T13:10:43;12.90;89.50
23147;DHT22;11742;53.532;-1.478;2023-03-01T13:13:30;12.90;89.40
23147;DHT22;11742;53.532;-1.478;2023-03-01T13:19:55;12.90;89.10
23147;DHT22;11742;53.532;-1.478;2023-03-01T13:22:40;13.00;89.00
23147;DHT22;11742;53.532;-1.478;2023-03-01T13:25:25;13.00;88.90
23147;DHT22;11742;53.532;-1.478;2023-03-01T13:34:00;13.10;89.00
23147;DHT22;11742;53.532;-1.478;2023-03-01T13:36:46;13.10;89.20
23147;DHT22;11742;53.532;-1.478;2023-03-01T13:39:32;13.10;89.40
23147;DHT22;11742;53.532;-1.478;2023-03-01T13:42:39;13.20;89.70
23147;DHT22;11742;53.532;-1.478;2023-03-01T13:45:34;13.20;89.80
23147;DHT22;11742;53.532;-1.478;2023-03-01T13:51:08;13.30;89.40
23147;DHT22;11742;53.532;-1.478;2023-03-01T13:53:52;13.30;89.10
23147;DHT22;11742;53.532;-1.478;2023-03-01T13:56:38;13.30;88.90
23147;DHT22;11742;53.532;-1.478;2023-03-01T13:59:22;13.30;88.50
23147;DHT22;11742;53.532;-1.478;2023-03-01T14:02:12;13.40;88.20
23147;DHT22;11742;53.532;-1.478;2023-03-01T14:04:57;13.40;87.90
23147;DHT22;11742;53.532;-1.478;2023-03-01T14:07:42;13.40;87.70
23147;DHT22;11742;53.532;-1.478;2023-03-01T14:10:29;13.40;87.50
23147;DHT22;11742;53.532;-1.478;2023-03-01T14:19:26;13.40;87.20
23147;DHT22;11742;53.532;-1.478;2023-03-01T14:24:56;13.40;87.40
23147;DHT22;11742;53.532;-1.478;2023-03-01T14:27:41;13.50;87.30
23147;DHT22;11742;53.532;-1.478;2023-03-01T14:30:33;13.40;87.20
23147;DHT22;11742;53.532;-1.478;2023-03-01T14:33:24;13.50;87.00
23147;DHT22;11742;53.532;-1.478;2023-03-01T14:36:10;13.40;87.00
23147;DHT22;11742;53.532;-1.478;2023-03-01T14:38:54;13.50;87.10
23147;DHT22;11742;53.532;-1.478;2023-03-01T14:41:38;13.50;87.10
23147;DHT22;11742;53.532;-1.478;2023-03-01T14:44:23;13.50;87.10
23147;DHT22;11742;53.532;-1.478;2023-03-01T14:47:15;13.50;86.00
23147;DHT22;11742;53.532;-1.478;2023-03-01T14:52:47;13.40;86.90
23147;DHT22;11742;53.532;-1.478;2023-03-01T14:55:35;13.40;86.70
23147;DHT22;11742;53.532;-1.478;2023-03-01T14:58:24;13.40;86.50
23147;DHT22;11742;53.532;-1.478;2023-03-01T15:01:10;13.40;86.40
23147;DHT22;11742;53.532;-1.478;2023-03-01T15:03:57;13.40;86.30
23147;DHT22;11742;53.532;-1.478;2023-03-01T15:06:42;13.40;86.30
23147;DHT22;11742;53.532;-1.478;2023-03-01T15:09:27;13.40;86.30
23147;DHT22;11742;53.532;-1.478;2023-03-01T15:12:25;13.40;86.10
23147;DHT22;11742;53.532;-1.478;2023-03-01T15:15:19;13.40;86.90
23147;DHT22;11742;53.532;-1.478;2023-03-01T15:18:14;13.40;86.00
23147;DHT22;11742;53.532;-1.478;2023-03-01T15:21:06;13.40;85.90
23147;DHT22;11742;53.532;-1.478;2023-03-01T15:23:52;13.40;85.80
23147;DHT22;11742;53.532;-1.478;2023-03-01T15:26:41;13.40;85.80
23147;DHT22;11742;53.532;-1.478;2023-03-01T15:29:27;13.40;85.80
23147;DHT22;11742;53.532;-1.478;2023-03-01T15:32:33;13.40;85.80
23147;DHT22;11742;53.532;-1.478;2023-03-01T15:41:25;13.40;85.70
23147;DHT22;11742;53.532;-1.478;2023-03-01T15:44:17;13.30;85.60
23147;DHT22;11742;53.532;-1.478;2023-03-01T15:47:01;13.30;85.60
23147;DHT22;11742;53.532;-1.478;2023-03-01T15:49:46;13.30;85.50
23147;DHT22;11742;53.532;-1.478;2023-03-01T15:52:35;13.30;85.60
23147;DHT22;11742;53.532;-1.478;2023-03-01T15:55:27;13.30;85.70
23147;DHT22;11742;53.532;-1.478;2023-03-01T15:58:15;13.30;85.70
23147;DHT22;11742;53.532;-1.478;2023-03-01T16:00:59;13.30;85.70
23147;DHT22;11742;53.532;-1.478;2023-03-01T16:03:44;13.30;85.70
23147;DHT22;11742;53.532;-1.478;2023-03-01T16:06:28;13.20;85.60
23147;DHT22;11742;53.532;-1.478;2023-03-01T16:09:13;13.20;85.50
23147;DHT22;11742;53.532;-1.478;2023-03-01T16:11:57;13.20;85.60
23147;DHT22;11742;53.532;-1.478;2023-03-01T16:14:41;13.20;85.60
23147;DHT22;11742;53.532;-1.478;2023-03-01T16:17:25;13.20;85.50
23147;DHT22;11742;53.532;-1.478;2023-03-01T16:20:10;13.20;85.60
23147;DHT22;11742;53.532;-1.478;2023-03-01T16:22:54;13.20;85.60
23147;DHT22;11742;53.532;-1.478;2023-03-01T16:25:38;13.10;85.60
23147;DHT22;11742;53.532;-1.478;2023-03-01T16:28:22;13.10;85.60
23147;DHT22;11742;53.532;-1.478;2023-03-01T16:31:07;13.10;85.70
23147;DHT22;11742;53.532;-1.478;2023-03-01T16:33:52;13.10;85.80
23147;DHT22;11742;53.532;-1.478;2023-03-01T16:36:36;13.10;85.70
23147;DHT22;11742;53.532;-1.478;2023-03-01T16:39:21;13.10;85.70
23147;DHT22;11742;53.532;-1.478;2023-03-01T16:42:05;13.10;85.80
23147;DHT22;11742;53.532;-1.478;2023-03-01T16:44:53;13.00;85.70
23147;DHT22;11742;53.532;-1.478;2023-03-01T16:47:38;13.10;85.80
23147;DHT22;11742;53.532;-1.478;2023-03-01T16:50:22;13.00;85.70
23147;DHT22;11742;53.532;-1.478;2023-03-01T16:53:06;13.00;85.70
23147;DHT22;11742;53.532;-1.478;2023-03-01T16:55:57;13.00;85.50
23147;DHT22;11742;53.532;-1.478;2023-03-01T16:58:42;13.00;85.50
23147;DHT22;11742;53.532;-1.478;2023-03-01T17:01:26;12.90;85.40
23147;DHT22;11742;53.532;-1.478;2023-03-01T17:04:16;12.90;85.40
23147;DHT22;11742;53.532;-1.478;2023-03-01T17:07:01;12.90;85.30
23147;DHT22;11742;53.532;-1.478;2023-03-01T17:09:45;12.90;85.30
23147;DHT22;11742;53.532;-1.478;2023-03-01T17:12:29;12.90;85.30
23147;DHT22;11742;53.532;-1.478;2023-03-01T17:15:14;12.80;85.10
23147;DHT22;11742;53.532;-1.478;2023-03-01T17:17:58;12.80;85.20
23147;DHT22;11742;53.532;-1.478;2023-03-01T17:20:42;12.80;85.10
23147;DHT22;11742;53.532;-1.478;2023-03-01T17:23:27;12.80;85.10
23147;DHT22;11742;53.532;-1.478;2023-03-01T17:26:12;12.80;85.10
23147;DHT22;11742;53.532;-1.478;2023-03-01T17:28:56;12.70;85.00
23147;DHT22;11742;53.532;-1.478;2023-03-01T17:31:42;12.70;85.00
23147;DHT22;11742;53.532;-1.478;2023-03-01T17:34:26;12.70;85.00
23147;DHT22;11742;53.532;-1.478;2023-03-01T17:37:10;12.70;85.10
23147;DHT22;11742;53.532;-1.478;2023-03-01T17:39:54;12.60;85.00
23147;DHT22;11742;53.532;-1.478;2023-03-01T17:42:39;12.60;85.00
23147;DHT22;11742;53.532;-1.478;2023-03-01T17:45:23;12.60;85.10
23147;DHT22;11742;53.532;-1.478;2023-03-01T17:48:07;12.60;85.00
23147;DHT22;11742;53.532;-1.478;2023-03-01T17:50:51;12.60;85.10
23147;DHT22;11742;53.532;-1.478;2023-03-01T17:53:36;12.60;85.10
23147;DHT22;11742;53.532;-1.478;2023-03-01T17:56:20;12.50;85.00
23147;DHT22;11742;53.532;-1.478;2023-03-01T17:59:04;12.50;85.00
23147;DHT22;11742;53.532;-1.478;2023-03-01T18:01:49;12.50;85.10
23147;DHT22;11742;53.532;-1.478;2023-03-01T18:04:33;12.50;85.10
23147;DHT22;11742;53.532;-1.478;2023-03-01T18:07:18;12.40;85.20
23147;DHT22;11742;53.532;-1.478;2023-03-01T18:10:03;12.40;85.20
23147;DHT22;11742;53.532;-1.478;2023-03-01T18:12:47;12.40;85.30
23147;DHT22;11742;53.532;-1.478;2023-03-01T18:15:32;12.40;85.30
23147;DHT22;11742;53.532;-1.478;2023-03-01T18:18:16;12.30;85.30
23147;DHT22;11742;53.532;-1.478;2023-03-01T18:21:00;12.30;85.30
23147;DHT22;11742;53.532;-1.478;2023-03-01T18:23:44;12.30;85.30
23147;DHT22;11742;53.532;-1.478;2023-03-01T18:26:29;12.30;85.30
23147;DHT22;11742;53.532;-1.478;2023-03-01T18:29:13;12.30;85.30
23147;DHT22;11742;53.532;-1.478;2023-03-01T18:31:57;12.30;85.40
23147;DHT22;11742;53.532;-1.478;2023-03-01T18:34:41;12.30;85.30
23147;DHT22;11742;53.532;-1.478;2023-03-01T18:37:25;12.30;85.30
23147;DHT22;11742;53.532;-1.478;2023-03-01T18:40:10;12.20;85.30
23147;DHT22;11742;53.532;-1.478;2023-03-01T18:42:55;12.20;85.40
23147;DHT22;11742;53.532;-1.478;2023-03-01T18:45:40;12.20;85.40
23147;DHT22;11742;53.532;-1.478;2023-03-01T18:48:27;12.10;85.30
23147;DHT22;11742;53.532;-1.478;2023-03-01T18:51:14;12.10;85.30
23147;DHT22;11742;53.532;-1.478;2023-03-01T18:53:58;12.10;85.30
23147;DHT22;11742;53.532;-1.478;2023-03-01T18:56:42;12.10;85.40
23147;DHT22;11742;53.532;-1.478;2023-03-01T18:59:27;12.10;85.40
23147;DHT22;11742;53.532;-1.478;2023-03-01T19:02:12;12.10;85.50
23147;DHT22;11742;53.532;-1.478;2023-03-01T19:04:58;12.00;85.40
23147;DHT22;11742;53.532;-1.478;2023-03-01T19:07:42;12.10;85.40